JAL597 RJTT-RJCC
Flight info
| Callsign | JAL597 |
|---|---|
| Flight time | 1h 17m |
| Altitude | 37000 |
| Route | BRUCE AGRIS Y11 SAMBO Y119 OHMAR Y13 SIRAO Y139 NAVER |
| Aircraft | A359/H-SDE2E3GHIJ3J4J5LM1ORWXY/LB1D1 |
Departure
| Time | 2026-02-20 10:39 |
|---|---|
| Airport | Tokyo Haneda International Airport (RJTT) |
Arrival
| Time | 2026-02-20 11:56 |
|---|---|
| Airport | New Chitose Airport (RJCC) |
| Time | Latitude | Longitude | Altitude | Speed | Heading |
|---|---|---|---|---|---|
| 2026-02-20 10:10 | 35.54729 | 139.78314 | 31 ft | 0 kts | 18° |
| 2026-02-20 10:27 | 35.54726 | 139.78312 | 31 ft | 2 kts | 19° |
| 2026-02-20 10:28 | 35.54708 | 139.78305 | 30 ft | 3 kts | 22° |
| 2026-02-20 10:28 | 35.54689 | 139.78295 | 30 ft | 3 kts | 23° |
| 2026-02-20 10:28 | 35.54675 | 139.78288 | 30 ft | 1 kts | 20° |
| 2026-02-20 10:28 | 35.54677 | 139.78285 | 29 ft | 3 kts | 342° |
| 2026-02-20 10:29 | 35.54682 | 139.78269 | 29 ft | 3 kts | 286° |
| 2026-02-20 10:29 | 35.54684 | 139.78244 | 29 ft | 3 kts | 272° |
| 2026-02-20 10:29 | 35.54686 | 139.78220 | 28 ft | 3 kts | 282° |
| 2026-02-20 10:29 | 35.54687 | 139.78218 | 29 ft | 1 kts | 329° |
| 2026-02-20 10:30 | 35.54704 | 139.78206 | 28 ft | 0 kts | 149° |
| 2026-02-20 10:32 | 35.54681 | 139.78223 | 28 ft | 10 kts | 149° |
| 2026-02-20 10:32 | 35.54606 | 139.78277 | 31 ft | 15 kts | 150° |
| 2026-02-20 10:33 | 35.54500 | 139.78351 | 31 ft | 20 kts | 150° |
| 2026-02-20 10:33 | 35.54368 | 139.78445 | 31 ft | 23 kts | 149° |
| 2026-02-20 10:33 | 35.54251 | 139.78530 | 31 ft | 16 kts | 149° |
| 2026-02-20 10:33 | 35.54234 | 139.78642 | 31 ft | 16 kts | 68° |
| 2026-02-20 10:34 | 35.54295 | 139.78778 | 31 ft | 20 kts | 60° |
| 2026-02-20 10:34 | 35.54373 | 139.78940 | 31 ft | 24 kts | 60° |
| 2026-02-20 10:34 | 35.54463 | 139.79130 | 31 ft | 27 kts | 60° |
| 2026-02-20 10:34 | 35.54564 | 139.79345 | 30 ft | 31 kts | 59° |
| 2026-02-20 10:35 | 35.54679 | 139.79584 | 30 ft | 34 kts | 59° |
| 2026-02-20 10:35 | 35.54729 | 139.79702 | 30 ft | 2 kts | 98° |
| 2026-02-20 10:35 | 35.54714 | 139.79722 | 30 ft | 5 kts | 133° |
| 2026-02-20 10:35 | 35.54668 | 139.79762 | 30 ft | 11 kts | 148° |
| 2026-02-20 10:36 | 35.54590 | 139.79819 | 30 ft | 15 kts | 150° |
| 2026-02-20 10:36 | 35.54483 | 139.79895 | 30 ft | 20 kts | 150° |
| 2026-02-20 10:36 | 35.54348 | 139.79991 | 30 ft | 25 kts | 150° |
| 2026-02-20 10:36 | 35.54214 | 139.80086 | 30 ft | 19 kts | 149° |
| 2026-02-20 10:37 | 35.54102 | 139.80165 | 30 ft | 20 kts | 150° |
| 2026-02-20 10:37 | 35.53999 | 139.80239 | 30 ft | 11 kts | 149° |
| 2026-02-20 10:37 | 35.53928 | 139.80300 | 30 ft | 14 kts | 123° |
| 2026-02-20 10:37 | 35.53943 | 139.80418 | 30 ft | 17 kts | 61° |
| 2026-02-20 10:38 | 35.54036 | 139.80461 | 31 ft | 16 kts | 336° |
| 2026-02-20 10:38 | 35.54084 | 139.80429 | 30 ft | 0 kts | 329° |
| 2026-02-20 10:38 | 35.54145 | 139.80385 | 31 ft | 45 kts | 330° |
| 2026-02-20 10:38 | 35.54694 | 139.79998 | 31 ft | 133 kts | 330° |
| 2026-02-20 10:39 | 35.55700 | 139.79282 | 196 ft | 191 kts | 330° |
| 2026-02-20 10:39 | 35.56954 | 139.78387 | 714 ft | 226 kts | 330° |
| 2026-02-20 10:39 | 35.58421 | 139.77283 | 1268 ft | 269 kts | 328° |
| 2026-02-20 10:39 | 35.60211 | 139.76299 | 1738 ft | 288 kts | 349° |
| 2026-02-20 10:40 | 35.62129 | 139.76552 | 3038 ft | 276 kts | 23° |
| 2026-02-20 10:40 | 35.63594 | 139.77967 | 4233 ft | 268 kts | 56° |
| 2026-02-20 10:40 | 35.64499 | 139.79957 | 5258 ft | 269 kts | 59° |
| 2026-02-20 10:40 | 35.65919 | 139.81453 | 6183 ft | 274 kts | 24° |
| 2026-02-20 10:41 | 35.67773 | 139.81833 | 7154 ft | 271 kts | 358° |
| 2026-02-20 10:41 | 35.69660 | 139.81676 | 8068 ft | 272 kts | 350° |
| 2026-02-20 10:41 | 35.71520 | 139.81233 | 9006 ft | 274 kts | 345° |
| 2026-02-20 10:41 | 35.73408 | 139.80814 | 9964 ft | 278 kts | 351° |
| 2026-02-20 10:42 | 35.75370 | 139.80869 | 10649 ft | 292 kts | 7° |
| 2026-02-20 10:42 | 35.77375 | 139.81661 | 11025 ft | 315 kts | 20° |
| 2026-02-20 10:42 | 35.79421 | 139.82781 | 11630 ft | 326 kts | 22° |
| 2026-02-20 10:42 | 35.81509 | 139.83928 | 12391 ft | 332 kts | 21° |
| 2026-02-20 10:43 | 35.83647 | 139.85069 | 13163 ft | 337 kts | 21° |
| 2026-02-20 10:43 | 35.88025 | 139.87335 | 14617 ft | 346 kts | 19° |
| 2026-02-20 10:43 | 35.90342 | 139.88080 | 15041 ft | 344 kts | 3° |
| 2026-02-20 10:44 | 35.92696 | 139.87844 | 15324 ft | 340 kts | 342° |
| 2026-02-20 10:44 | 35.94936 | 139.86897 | 16054 ft | 341 kts | 336° |
| 2026-02-20 10:44 | 35.97203 | 139.85987 | 16848 ft | 346 kts | 343° |
| 2026-02-20 10:44 | 35.99595 | 139.85748 | 17569 ft | 356 kts | 0° |
| 2026-02-20 10:45 | 36.02089 | 139.86348 | 18282 ft | 365 kts | 11° |
| 2026-02-20 10:45 | 36.04500 | 139.87294 | 18886 ft | 371 kts | 15° |
| 2026-02-20 10:45 | 36.06928 | 139.88434 | 19473 ft | 376 kts | 18° |
| 2026-02-20 10:45 | 36.09366 | 139.89659 | 20076 ft | 380 kts | 18° |
| 2026-02-20 10:46 | 36.11822 | 139.90903 | 20701 ft | 383 kts | 18° |
| 2026-02-20 10:46 | 36.14303 | 139.92140 | 21319 ft | 386 kts | 18° |
| 2026-02-20 10:46 | 36.16810 | 139.93359 | 21919 ft | 389 kts | 17° |
| 2026-02-20 10:46 | 36.19399 | 139.94335 | 22495 ft | 388 kts | 8° |
| 2026-02-20 10:47 | 36.22071 | 139.94733 | 23089 ft | 387 kts | 359° |
| 2026-02-20 10:47 | 36.24774 | 139.94841 | 23698 ft | 389 kts | 356° |
| 2026-02-20 10:47 | 36.27495 | 139.94814 | 24193 ft | 393 kts | 354° |
| 2026-02-20 10:47 | 36.30238 | 139.94718 | 24686 ft | 396 kts | 353° |
| 2026-02-20 10:48 | 36.33007 | 139.94596 | 25174 ft | 401 kts | 353° |
| 2026-02-20 10:48 | 36.35810 | 139.94475 | 25685 ft | 405 kts | 353° |
| 2026-02-20 10:48 | 36.38641 | 139.94364 | 26216 ft | 409 kts | 353° |
| 2026-02-20 10:48 | 36.41504 | 139.94265 | 26760 ft | 413 kts | 353° |
| 2026-02-20 10:49 | 36.44398 | 139.94211 | 27317 ft | 419 kts | 354° |
| 2026-02-20 10:49 | 36.47333 | 139.94290 | 27881 ft | 425 kts | 356° |
| 2026-02-20 10:49 | 36.50309 | 139.94445 | 28477 ft | 430 kts | 356° |
| 2026-02-20 10:49 | 36.53306 | 139.94622 | 29106 ft | 433 kts | 356° |
| 2026-02-20 10:50 | 36.56333 | 139.94798 | 29675 ft | 438 kts | 356° |
| 2026-02-20 10:50 | 36.59394 | 139.94961 | 30220 ft | 443 kts | 356° |
| 2026-02-20 10:50 | 36.62488 | 139.95112 | 30694 ft | 447 kts | 355° |
| 2026-02-20 10:50 | 36.65606 | 139.95255 | 31176 ft | 450 kts | 355° |
| 2026-02-20 10:51 | 36.68746 | 139.95392 | 31670 ft | 454 kts | 355° |
| 2026-02-20 10:51 | 36.71916 | 139.95525 | 32182 ft | 457 kts | 355° |
| 2026-02-20 10:51 | 36.75097 | 139.95661 | 32647 ft | 460 kts | 355° |
| 2026-02-20 10:51 | 36.78312 | 139.95798 | 33070 ft | 464 kts | 355° |
| 2026-02-20 10:52 | 36.81554 | 139.95936 | 33508 ft | 468 kts | 355° |
| 2026-02-20 10:52 | 36.84817 | 139.96077 | 33926 ft | 472 kts | 355° |
| 2026-02-20 10:52 | 36.88119 | 139.96470 | 34297 ft | 482 kts | 2° |
| 2026-02-20 10:52 | 36.91432 | 139.97181 | 34750 ft | 484 kts | 4° |
| 2026-02-20 10:53 | 36.94738 | 139.97980 | 35220 ft | 484 kts | 5° |
| 2026-02-20 10:53 | 36.98046 | 139.98827 | 35679 ft | 485 kts | 5° |
| 2026-02-20 10:53 | 37.01351 | 139.99693 | 36124 ft | 486 kts | 5° |
| 2026-02-20 10:53 | 37.04660 | 140.00566 | 36571 ft | 486 kts | 5° |
| 2026-02-20 10:54 | 37.07974 | 140.01445 | 36984 ft | 488 kts | 5° |
| 2026-02-20 10:54 | 37.11295 | 140.02313 | 37156 ft | 482 kts | 5° |
| 2026-02-20 10:54 | 37.14520 | 140.03160 | 37156 ft | 466 kts | 4° |
| 2026-02-20 10:54 | 37.17646 | 140.03981 | 37152 ft | 455 kts | 4° |
| 2026-02-20 10:55 | 37.23819 | 140.05573 | 37150 ft | 452 kts | 4° |
| 2026-02-20 10:55 | 37.29984 | 140.07153 | 37193 ft | 452 kts | 4° |
| 2026-02-20 10:56 | 37.36139 | 140.08745 | 37162 ft | 451 kts | 4° |
| 2026-02-20 10:56 | 37.42281 | 140.10343 | 37162 ft | 451 kts | 4° |
| 2026-02-20 10:57 | 37.48425 | 140.11942 | 37159 ft | 451 kts | 4° |
| 2026-02-20 10:57 | 37.54526 | 140.13534 | 37163 ft | 450 kts | 5° |
| 2026-02-20 10:58 | 37.60653 | 140.15134 | 37160 ft | 450 kts | 5° |
| 2026-02-20 10:58 | 37.66783 | 140.16746 | 37161 ft | 450 kts | 5° |
| 2026-02-20 10:59 | 37.72910 | 140.18346 | 37163 ft | 450 kts | 5° |
| 2026-02-20 10:59 | 37.79038 | 140.19951 | 37165 ft | 450 kts | 5° |
| 2026-02-20 11:00 | 37.85173 | 140.21562 | 37165 ft | 450 kts | 5° |
| 2026-02-20 11:00 | 37.91302 | 140.23175 | 37161 ft | 450 kts | 5° |
| 2026-02-20 11:01 | 37.97423 | 140.24785 | 37163 ft | 448 kts | 5° |
| 2026-02-20 11:01 | 38.03524 | 140.26398 | 37155 ft | 447 kts | 5° |
| 2026-02-20 11:02 | 38.09616 | 140.28011 | 37151 ft | 447 kts | 5° |
| 2026-02-20 11:02 | 38.15710 | 140.29627 | 37148 ft | 447 kts | 5° |
| 2026-02-20 11:03 | 38.21778 | 140.31239 | 37127 ft | 445 kts | 5° |
| 2026-02-20 11:03 | 38.27839 | 140.32851 | 37109 ft | 445 kts | 5° |
| 2026-02-20 11:04 | 38.33900 | 140.34466 | 37101 ft | 445 kts | 5° |
| 2026-02-20 11:04 | 38.39948 | 140.36085 | 37102 ft | 443 kts | 6° |
| 2026-02-20 11:05 | 38.45955 | 140.37938 | 37102 ft | 444 kts | 8° |
| 2026-02-20 11:05 | 38.51941 | 140.39928 | 37107 ft | 444 kts | 8° |
| 2026-02-20 11:06 | 38.57924 | 140.41897 | 37126 ft | 444 kts | 8° |
| 2026-02-20 11:06 | 38.63905 | 140.43836 | 37135 ft | 443 kts | 8° |
| 2026-02-20 11:07 | 38.69839 | 140.45753 | 37162 ft | 442 kts | 8° |
| 2026-02-20 11:07 | 38.75802 | 140.47676 | 37164 ft | 442 kts | 8° |
| 2026-02-20 11:08 | 38.81766 | 140.49603 | 37164 ft | 441 kts | 8° |
| 2026-02-20 11:08 | 38.87714 | 140.51536 | 37164 ft | 441 kts | 8° |
| 2026-02-20 11:09 | 38.93660 | 140.53468 | 37160 ft | 440 kts | 8° |
| 2026-02-20 11:09 | 38.99602 | 140.55399 | 37163 ft | 440 kts | 8° |
| 2026-02-20 11:10 | 39.05536 | 140.57345 | 37167 ft | 440 kts | 9° |
| 2026-02-20 11:10 | 39.11470 | 140.59290 | 37166 ft | 440 kts | 8° |
| 2026-02-20 11:11 | 39.16405 | 140.60903 | 37167 ft | 440 kts | 8° |
| 2026-02-20 11:11 | 39.22380 | 140.62864 | 37166 ft | 440 kts | 9° |
| 2026-02-20 11:12 | 39.28269 | 140.64803 | 37164 ft | 439 kts | 9° |
| 2026-02-20 11:12 | 39.34186 | 140.66756 | 37179 ft | 439 kts | 9° |
| 2026-02-20 11:13 | 39.40100 | 140.68709 | 37167 ft | 439 kts | 9° |
| 2026-02-20 11:13 | 39.44550 | 140.70182 | 37167 ft | 439 kts | 9° |
| 2026-02-20 11:14 | 39.50465 | 140.72146 | 37157 ft | 438 kts | 9° |
| 2026-02-20 11:14 | 39.56362 | 140.74099 | 37161 ft | 437 kts | 9° |
| 2026-02-20 11:15 | 39.62266 | 140.76058 | 37163 ft | 437 kts | 9° |
| 2026-02-20 11:15 | 39.68156 | 140.78022 | 37163 ft | 437 kts | 9° |
| 2026-02-20 11:16 | 39.74048 | 140.79991 | 37160 ft | 437 kts | 9° |
| 2026-02-20 11:16 | 39.79940 | 140.81961 | 37166 ft | 437 kts | 9° |
| 2026-02-20 11:17 | 39.85820 | 140.83931 | 37160 ft | 437 kts | 9° |
| 2026-02-20 11:17 | 39.91704 | 140.85904 | 37157 ft | 436 kts | 9° |
| 2026-02-20 11:18 | 39.97548 | 140.87867 | 37162 ft | 436 kts | 9° |
| 2026-02-20 11:18 | 40.03428 | 140.89847 | 37154 ft | 436 kts | 9° |
| 2026-02-20 11:19 | 40.09309 | 140.91830 | 37151 ft | 436 kts | 9° |
| 2026-02-20 11:19 | 40.15182 | 140.93815 | 37150 ft | 437 kts | 9° |
| 2026-02-20 11:20 | 40.21124 | 140.95054 | 37145 ft | 429 kts | 358° |
| 2026-02-20 11:20 | 40.27069 | 140.95378 | 37134 ft | 427 kts | 356° |
| 2026-02-20 11:21 | 40.33012 | 140.95546 | 37137 ft | 427 kts | 356° |
| 2026-02-20 11:21 | 40.38944 | 140.95708 | 37129 ft | 427 kts | 356° |
| 2026-02-20 11:22 | 40.44878 | 140.95890 | 37125 ft | 427 kts | 356° |
| 2026-02-20 11:22 | 40.50819 | 140.96085 | 37106 ft | 426 kts | 356° |
| 2026-02-20 11:23 | 40.56747 | 140.96283 | 37091 ft | 426 kts | 356° |
| 2026-02-20 11:23 | 40.62678 | 140.96479 | 37083 ft | 427 kts | 356° |
| 2026-02-20 11:24 | 40.68613 | 140.96677 | 37077 ft | 426 kts | 356° |
| 2026-02-20 11:24 | 40.74543 | 140.96875 | 37078 ft | 426 kts | 356° |
| 2026-02-20 11:25 | 40.80426 | 140.97077 | 37111 ft | 426 kts | 356° |
| 2026-02-20 11:25 | 40.86350 | 140.97269 | 37102 ft | 426 kts | 356° |
| 2026-02-20 11:26 | 40.92269 | 140.97464 | 37101 ft | 426 kts | 356° |
| 2026-02-20 11:26 | 40.98190 | 140.97663 | 37101 ft | 426 kts | 356° |
| 2026-02-20 11:27 | 41.04109 | 140.97861 | 37099 ft | 425 kts | 357° |
| 2026-02-20 11:27 | 41.10028 | 140.98060 | 37098 ft | 425 kts | 357° |
| 2026-02-20 11:28 | 41.15939 | 140.98260 | 37099 ft | 425 kts | 357° |
| 2026-02-20 11:28 | 41.21856 | 140.98460 | 37101 ft | 425 kts | 357° |
| 2026-02-20 11:29 | 41.27763 | 140.98666 | 37101 ft | 425 kts | 358° |
| 2026-02-20 11:29 | 41.33697 | 141.00168 | 37100 ft | 433 kts | 13° |
| 2026-02-20 11:30 | 41.39404 | 141.02798 | 37094 ft | 435 kts | 16° |
| 2026-02-20 11:30 | 41.45071 | 141.05640 | 37094 ft | 435 kts | 16° |
| 2026-02-20 11:31 | 41.50740 | 141.08498 | 36938 ft | 442 kts | 16° |
| 2026-02-20 11:31 | 41.53671 | 141.09951 | 36872 ft | 456 kts | 16° |
| 2026-02-20 11:31 | 41.56686 | 141.11438 | 36811 ft | 467 kts | 16° |
| 2026-02-20 11:32 | 41.59747 | 141.12951 | 36565 ft | 468 kts | 17° |
| 2026-02-20 11:32 | 41.62799 | 141.14465 | 36319 ft | 469 kts | 17° |
| 2026-02-20 11:32 | 41.68920 | 141.17509 | 35813 ft | 469 kts | 17° |
| 2026-02-20 11:33 | 41.71970 | 141.19043 | 35427 ft | 467 kts | 17° |
| 2026-02-20 11:33 | 41.75006 | 141.20579 | 34716 ft | 466 kts | 17° |
| 2026-02-20 11:33 | 41.78039 | 141.22116 | 33874 ft | 468 kts | 17° |
| 2026-02-20 11:33 | 41.81085 | 141.23662 | 32956 ft | 469 kts | 17° |
| 2026-02-20 11:34 | 41.84137 | 141.25212 | 32070 ft | 468 kts | 17° |
| 2026-02-20 11:34 | 41.87177 | 141.26758 | 31170 ft | 461 kts | 17° |
| 2026-02-20 11:34 | 41.90098 | 141.28253 | 30632 ft | 440 kts | 17° |
| 2026-02-20 11:34 | 41.92935 | 141.29707 | 30071 ft | 435 kts | 17° |
| 2026-02-20 11:35 | 41.95675 | 141.31416 | 29427 ft | 433 kts | 26° |
| 2026-02-20 11:35 | 41.98139 | 141.33733 | 28845 ft | 432 kts | 37° |
| 2026-02-20 11:35 | 42.00373 | 141.36411 | 28259 ft | 428 kts | 39° |
| 2026-02-20 11:35 | 42.02527 | 141.39136 | 27682 ft | 424 kts | 40° |
| 2026-02-20 11:36 | 42.04654 | 141.41859 | 27099 ft | 419 kts | 40° |
| 2026-02-20 11:36 | 42.06752 | 141.44553 | 26525 ft | 416 kts | 40° |
| 2026-02-20 11:36 | 42.08835 | 141.47232 | 25936 ft | 413 kts | 40° |
| 2026-02-20 11:36 | 42.10875 | 141.49857 | 25366 ft | 410 kts | 41° |
| 2026-02-20 11:37 | 42.13040 | 141.52386 | 24801 ft | 404 kts | 33° |
| 2026-02-20 11:37 | 42.15371 | 141.54344 | 24238 ft | 398 kts | 26° |
| 2026-02-20 11:37 | 42.17787 | 141.56149 | 23676 ft | 396 kts | 25° |
| 2026-02-20 11:37 | 42.20191 | 141.57919 | 23047 ft | 392 kts | 25° |
| 2026-02-20 11:38 | 42.22576 | 141.59680 | 22462 ft | 388 kts | 25° |
| 2026-02-20 11:38 | 42.24928 | 141.61423 | 21899 ft | 383 kts | 25° |
| 2026-02-20 11:38 | 42.27254 | 141.63153 | 21333 ft | 380 kts | 26° |
| 2026-02-20 11:38 | 42.29561 | 141.64871 | 20778 ft | 378 kts | 26° |
| 2026-02-20 11:39 | 42.31854 | 141.66581 | 20217 ft | 375 kts | 26° |
| 2026-02-20 11:39 | 42.34134 | 141.68285 | 19660 ft | 373 kts | 26° |
| 2026-02-20 11:39 | 42.36397 | 141.69976 | 19108 ft | 371 kts | 26° |
| 2026-02-20 11:39 | 42.38647 | 141.71660 | 18553 ft | 368 kts | 26° |
| 2026-02-20 11:40 | 42.40878 | 141.73332 | 17961 ft | 366 kts | 26° |
| 2026-02-20 11:40 | 42.43097 | 141.74997 | 17384 ft | 363 kts | 26° |
| 2026-02-20 11:40 | 42.45302 | 141.76652 | 16842 ft | 361 kts | 26° |
| 2026-02-20 11:40 | 42.47495 | 141.78300 | 16287 ft | 359 kts | 26° |
| 2026-02-20 11:41 | 42.49676 | 141.79940 | 15732 ft | 357 kts | 26° |
| 2026-02-20 11:41 | 42.51841 | 141.81575 | 15177 ft | 355 kts | 26° |
| 2026-02-20 11:41 | 42.53992 | 141.83193 | 14631 ft | 353 kts | 26° |
| 2026-02-20 11:41 | 42.56134 | 141.84804 | 14083 ft | 351 kts | 25° |
| 2026-02-20 11:42 | 42.58339 | 141.86143 | 13494 ft | 344 kts | 13° |
| 2026-02-20 11:42 | 42.60664 | 141.86591 | 12949 ft | 334 kts | 356° |
| 2026-02-20 11:42 | 42.62962 | 141.86464 | 12427 ft | 328 kts | 352° |
| 2026-02-20 11:42 | 42.65224 | 141.86231 | 11911 ft | 325 kts | 351° |
| 2026-02-20 11:43 | 42.67469 | 141.85992 | 11340 ft | 322 kts | 351° |
| 2026-02-20 11:43 | 42.69667 | 141.85768 | 11106 ft | 309 kts | 351° |
| 2026-02-20 11:43 | 42.71758 | 141.85564 | 10966 ft | 293 kts | 351° |
| 2026-02-20 11:43 | 42.73744 | 141.85372 | 10829 ft | 279 kts | 351° |
| 2026-02-20 11:44 | 42.75635 | 141.85190 | 10695 ft | 268 kts | 351° |
| 2026-02-20 11:44 | 42.77486 | 141.85007 | 10538 ft | 266 kts | 351° |
| 2026-02-20 11:44 | 42.79326 | 141.84824 | 10257 ft | 264 kts | 351° |
| 2026-02-20 11:44 | 42.81156 | 141.84643 | 9930 ft | 262 kts | 351° |
| 2026-02-20 11:45 | 42.82999 | 141.84273 | 9639 ft | 274 kts | 344° |
| 2026-02-20 11:45 | 42.84872 | 141.83710 | 9473 ft | 276 kts | 342° |
| 2026-02-20 11:45 | 42.86731 | 141.83119 | 8950 ft | 274 kts | 341° |
| 2026-02-20 11:45 | 42.88584 | 141.82524 | 8502 ft | 272 kts | 342° |
| 2026-02-20 11:46 | 42.90427 | 141.81936 | 8140 ft | 272 kts | 341° |
| 2026-02-20 11:46 | 42.92237 | 141.81360 | 7788 ft | 270 kts | 341° |
| 2026-02-20 11:46 | 42.94061 | 141.80781 | 7440 ft | 268 kts | 341° |
| 2026-02-20 11:46 | 42.95876 | 141.80206 | 7098 ft | 266 kts | 341° |
| 2026-02-20 11:47 | 42.97675 | 141.79635 | 6761 ft | 265 kts | 341° |
| 2026-02-20 11:47 | 42.99456 | 141.79033 | 6421 ft | 261 kts | 337° |
| 2026-02-20 11:47 | 43.01053 | 141.77955 | 6069 ft | 253 kts | 321° |
| 2026-02-20 11:47 | 43.02445 | 141.76504 | 5735 ft | 251 kts | 317° |
| 2026-02-20 11:48 | 43.03799 | 141.74984 | 5411 ft | 251 kts | 316° |
| 2026-02-20 11:48 | 43.05129 | 141.73437 | 5079 ft | 250 kts | 313° |
| 2026-02-20 11:48 | 43.06160 | 141.71555 | 4749 ft | 246 kts | 294° |
| 2026-02-20 11:48 | 43.06549 | 141.69315 | 4422 ft | 242 kts | 270° |
| 2026-02-20 11:49 | 43.06177 | 141.67098 | 4093 ft | 243 kts | 240° |
| 2026-02-20 11:49 | 43.04911 | 141.65588 | 3979 ft | 248 kts | 207° |
| 2026-02-20 11:49 | 43.03246 | 141.65022 | 3887 ft | 243 kts | 188° |
| 2026-02-20 11:49 | 43.01609 | 141.65114 | 3843 ft | 228 kts | 176° |
| 2026-02-20 11:50 | 43.00092 | 141.65425 | 3833 ft | 212 kts | 175° |
| 2026-02-20 11:50 | 42.98685 | 141.65684 | 3813 ft | 196 kts | 177° |
| 2026-02-20 11:50 | 42.97391 | 141.65900 | 3828 ft | 179 kts | 176° |
| 2026-02-20 11:50 | 42.96207 | 141.66108 | 3756 ft | 165 kts | 177° |
| 2026-02-20 11:51 | 42.95088 | 141.66307 | 3534 ft | 160 kts | 177° |
| 2026-02-20 11:51 | 42.93990 | 141.66500 | 3294 ft | 158 kts | 176° |
| 2026-02-20 11:51 | 42.92907 | 141.66692 | 3042 ft | 157 kts | 176° |
| 2026-02-20 11:51 | 42.91857 | 141.66880 | 2814 ft | 150 kts | 176° |
| 2026-02-20 11:52 | 42.90854 | 141.67057 | 2604 ft | 140 kts | 176° |
| 2026-02-20 11:52 | 42.89927 | 141.67222 | 2416 ft | 129 kts | 176° |
| 2026-02-20 11:52 | 42.89074 | 141.67372 | 2239 ft | 118 kts | 176° |
| 2026-02-20 11:52 | 42.88281 | 141.67512 | 2099 ft | 113 kts | 176° |
| 2026-02-20 11:53 | 42.87508 | 141.67649 | 1942 ft | 111 kts | 175° |
| 2026-02-20 11:53 | 42.86744 | 141.67784 | 1788 ft | 110 kts | 175° |
| 2026-02-20 11:53 | 42.85991 | 141.67917 | 1631 ft | 109 kts | 175° |
| 2026-02-20 11:53 | 42.85239 | 141.68050 | 1476 ft | 109 kts | 174° |
| 2026-02-20 11:54 | 42.84491 | 141.68183 | 1317 ft | 108 kts | 174° |
| 2026-02-20 11:54 | 42.83744 | 141.68315 | 1159 ft | 109 kts | 174° |
| 2026-02-20 11:54 | 42.82992 | 141.68443 | 978 ft | 109 kts | 173° |
| 2026-02-20 11:54 | 42.82230 | 141.68550 | 782 ft | 110 kts | 173° |
| 2026-02-20 11:55 | 42.81468 | 141.68701 | 628 ft | 112 kts | 169° |
| 2026-02-20 11:55 | 42.80957 | 141.68812 | 539 ft | 113 kts | 171° |
| 2026-02-20 11:55 | 42.80181 | 141.68956 | 393 ft | 112 kts | 173° |
| 2026-02-20 11:55 | 42.79407 | 141.69096 | 244 ft | 111 kts | 172° |
| 2026-02-20 11:56 | 42.78385 | 141.69270 | 93 ft | 106 kts | 173° |
| 2026-02-20 11:56 | 42.77952 | 141.69338 | 88 ft | 84 kts | 173° |
| 2026-02-20 11:56 | 42.77474 | 141.69419 | 90 ft | 39 kts | 177° |
| 2026-02-20 11:56 | 42.77255 | 141.69368 | 92 ft | 31 kts | 199° |
| 2026-02-20 11:57 | 42.77104 | 141.69267 | 89 ft | 17 kts | 227° |
| 2026-02-20 11:57 | 42.77066 | 141.69105 | 92 ft | 20 kts | 264° |
| 2026-02-20 11:57 | 42.77098 | 141.68913 | 89 ft | 23 kts | 325° |
| 2026-02-20 11:57 | 42.77269 | 141.68858 | 90 ft | 28 kts | 351° |
| 2026-02-20 11:58 | 42.77474 | 141.68822 | 90 ft | 32 kts | 353° |
| 2026-02-20 11:58 | 42.77703 | 141.68784 | 88 ft | 35 kts | 352° |
| 2026-02-20 11:58 | 42.77865 | 141.68756 | 90 ft | 18 kts | 353° |
| 2026-02-20 11:58 | 42.77969 | 141.68722 | 90 ft | 13 kts | 327° |
| 2026-02-20 11:59 | 42.78030 | 141.68601 | 87 ft | 18 kts | 303° |
| 2026-02-20 11:59 | 42.78143 | 141.68487 | 89 ft | 23 kts | 329° |
| 2026-02-20 11:59 | 42.78262 | 141.68354 | 89 ft | 20 kts | 309° |